sensor_id;sensor_type;location;lat;lon;timestamp;P1;durP1;ratioP1;P2;durP2;ratioP2
8349;SDS011;60699;48.946;8.412;2023-08-17T00:02:24;3.10;;;2.60;;
8349;SDS011;60699;48.946;8.412;2023-08-17T00:04:51;2.77;;;2.57;;
8349;SDS011;60699;48.946;8.412;2023-08-17T00:07:17;2.10;;;2.00;;
8349;SDS011;60699;48.946;8.412;2023-08-17T00:09:44;2.43;;;2.27;;
8349;SDS011;60699;48.946;8.412;2023-08-17T00:12:12;2.53;;;2.33;;
8349;SDS011;60699;48.946;8.412;2023-08-17T00:14:39;2.50;;;2.30;;
8349;SDS011;60699;48.946;8.412;2023-08-17T00:17:08;2.67;;;2.33;;
8349;SDS011;60699;48.946;8.412;2023-08-17T00:19:35;1.93;;;1.83;;
8349;SDS011;60699;48.946;8.412;2023-08-17T00:22:02;2.40;;;2.20;;
8349;SDS011;60699;48.946;8.412;2023-08-17T00:24:29;3.00;;;2.73;;
8349;SDS011;60699;48.946;8.412;2023-08-17T00:26:56;2.90;;;2.60;;
8349;SDS011;60699;48.946;8.412;2023-08-17T00:29:23;2.23;;;1.80;;
8349;SDS011;60699;48.946;8.412;2023-08-17T00:31:50;3.40;;;2.33;;
8349;SDS011;60699;48.946;8.412;2023-08-17T00:34:18;2.13;;;2.03;;
8349;SDS011;60699;48.946;8.412;2023-08-17T00:36:45;3.10;;;1.93;;
8349;SDS011;60699;48.946;8.412;2023-08-17T00:39:13;2.80;;;2.23;;
8349;SDS011;60699;48.946;8.412;2023-08-17T00:41:40;2.47;;;2.27;;
8349;SDS011;60699;48.946;8.412;2023-08-17T00:44:07;2.60;;;2.17;;
8349;SDS011;60699;48.946;8.412;2023-08-17T00:46:35;3.50;;;2.37;;
8349;SDS011;60699;48.946;8.412;2023-08-17T00:49:03;2.20;;;2.10;;
8349;SDS011;60699;48.946;8.412;2023-08-17T00:51:31;2.87;;;2.67;;
8349;SDS011;60699;48.946;8.412;2023-08-17T00:53:59;2.43;;;2.20;;
8349;SDS011;60699;48.946;8.412;2023-08-17T00:56:27;2.50;;;2.30;;
8349;SDS011;60699;48.946;8.412;2023-08-17T00:58:54;5.33;;;2.87;;
8349;SDS011;60699;48.946;8.412;2023-08-17T01:01:22;4.07;;;3.80;;
8349;SDS011;60699;48.946;8.412;2023-08-17T01:03:49;2.33;;;2.13;;
8349;SDS011;60699;48.946;8.412;2023-08-17T01:06:16;2.47;;;2.20;;
8349;SDS011;60699;48.946;8.412;2023-08-17T01:08:44;3.30;;;2.20;;
8349;SDS011;60699;48.946;8.412;2023-08-17T01:11:13;3.30;;;2.13;;
8349;SDS011;60699;48.946;8.412;2023-08-17T01:13:47;3.67;;;2.23;;
8349;SDS011;60699;48.946;8.412;2023-08-17T01:16:18;2.10;;;1.93;;
8349;SDS011;60699;48.946;8.412;2023-08-17T01:18:48;2.87;;;2.43;;
8349;SDS011;60699;48.946;8.412;2023-08-17T01:21:16;3.40;;;2.47;;
8349;SDS011;60699;48.946;8.412;2023-08-17T01:23:45;2.60;;;2.40;;
8349;SDS011;60699;48.946;8.412;2023-08-17T01:26:12;4.20;;;2.00;;
8349;SDS011;60699;48.946;8.412;2023-08-17T01:28:40;2.40;;;2.10;;
8349;SDS011;60699;48.946;8.412;2023-08-17T01:31:08;2.80;;;2.17;;
8349;SDS011;60699;48.946;8.412;2023-08-17T01:33:49;3.57;;;2.53;;
8349;SDS011;60699;48.946;8.412;2023-08-17T01:36:18;2.37;;;2.17;;
8349;SDS011;60699;48.946;8.412;2023-08-17T01:38:48;3.20;;;3.00;;
8349;SDS011;60699;48.946;8.412;2023-08-17T01:41:17;3.10;;;2.50;;
8349;SDS011;60699;48.946;8.412;2023-08-17T01:43:44;3.00;;;2.40;;
8349;SDS011;60699;48.946;8.412;2023-08-17T01:46:12;3.07;;;2.40;;
8349;SDS011;60699;48.946;8.412;2023-08-17T01:48:40;2.87;;;2.67;;
8349;SDS011;60699;48.946;8.412;2023-08-17T01:51:07;2.50;;;2.30;;
8349;SDS011;60699;48.946;8.412;2023-08-17T01:53:34;2.50;;;2.30;;
8349;SDS011;60699;48.946;8.412;2023-08-17T01:56:02;2.77;;;2.07;;
8349;SDS011;60699;48.946;8.412;2023-08-17T01:58:29;4.70;;;2.53;;
8349;SDS011;60699;48.946;8.412;2023-08-17T02:00:57;4.40;;;2.50;;
8349;SDS011;60699;48.946;8.412;2023-08-17T02:03:24;3.30;;;2.43;;
8349;SDS011;60699;48.946;8.412;2023-08-17T02:05:52;2.17;;;2.00;;
8349;SDS011;60699;48.946;8.412;2023-08-17T02:08:19;3.03;;;2.73;;
8349;SDS011;60699;48.946;8.412;2023-08-17T02:10:46;2.67;;;2.47;;
8349;SDS011;60699;48.946;8.412;2023-08-17T02:13:15;4.40;;;1.90;;
8349;SDS011;60699;48.946;8.412;2023-08-17T02:15:42;2.80;;;2.60;;
8349;SDS011;60699;48.946;8.412;2023-08-17T02:18:09;4.50;;;2.77;;
8349;SDS011;60699;48.946;8.412;2023-08-17T02:20:36;2.47;;;2.27;;
8349;SDS011;60699;48.946;8.412;2023-08-17T02:23:03;2.63;;;2.40;;
8349;SDS011;60699;48.946;8.412;2023-08-17T02:25:30;2.93;;;2.73;;
8349;SDS011;60699;48.946;8.412;2023-08-17T02:28:00;3.03;;;2.73;;
8349;SDS011;60699;48.946;8.412;2023-08-17T02:30:29;2.60;;;2.33;;
8349;SDS011;60699;48.946;8.412;2023-08-17T02:32:56;2.90;;;2.70;;
8349;SDS011;60699;48.946;8.412;2023-08-17T02:35:23;2.40;;;2.20;;
8349;SDS011;60699;48.946;8.412;2023-08-17T02:37:50;2.57;;;2.20;;
8349;SDS011;60699;48.946;8.412;2023-08-17T02:40:18;2.97;;;2.27;;
8349;SDS011;60699;48.946;8.412;2023-08-17T02:42:45;2.30;;;2.20;;
8349;SDS011;60699;48.946;8.412;2023-08-17T02:45:12;2.77;;;2.57;;
8349;SDS011;60699;48.946;8.412;2023-08-17T02:47:40;3.47;;;2.50;;
8349;SDS011;60699;48.946;8.412;2023-08-17T02:50:07;3.03;;;2.20;;
8349;SDS011;60699;48.946;8.412;2023-08-17T02:52:34;4.37;;;2.63;;
8349;SDS011;60699;48.946;8.412;2023-08-17T02:55:02;4.20;;;2.23;;
8349;SDS011;60699;48.946;8.412;2023-08-17T02:57:29;3.70;;;2.63;;
8349;SDS011;60699;48.946;8.412;2023-08-17T02:59:56;3.20;;;2.53;;
8349;SDS011;60699;48.946;8.412;2023-08-17T03:02:23;2.40;;;2.30;;
8349;SDS011;60699;48.946;8.412;2023-08-17T03:04:51;3.07;;;2.77;;
8349;SDS011;60699;48.946;8.412;2023-08-17T03:07:18;4.57;;;2.70;;
8349;SDS011;60699;48.946;8.412;2023-08-17T03:09:45;2.67;;;2.47;;
8349;SDS011;60699;48.946;8.412;2023-08-17T03:12:12;4.33;;;2.60;;
8349;SDS011;60699;48.946;8.412;2023-08-17T03:14:39;3.47;;;3.17;;
8349;SDS011;60699;48.946;8.412;2023-08-17T03:17:06;4.33;;;2.93;;
8349;SDS011;60699;48.946;8.412;2023-08-17T03:19:33;3.30;;;2.60;;
8349;SDS011;60699;48.946;8.412;2023-08-17T03:22:01;5.03;;;2.77;;
8349;SDS011;60699;48.946;8.412;2023-08-17T03:24:28;2.60;;;2.40;;
8349;SDS011;60699;48.946;8.412;2023-08-17T03:26:56;3.67;;;3.03;;
8349;SDS011;60699;48.946;8.412;2023-08-17T03:29:23;3.00;;;2.70;;
8349;SDS011;60699;48.946;8.412;2023-08-17T03:31:51;2.67;;;2.50;;
8349;SDS011;60699;48.946;8.412;2023-08-17T03:34:18;5.70;;;2.83;;
8349;SDS011;60699;48.946;8.412;2023-08-17T03:36:45;2.50;;;2.30;;
8349;SDS011;60699;48.946;8.412;2023-08-17T03:39:13;5.43;;;2.67;;
8349;SDS011;60699;48.946;8.412;2023-08-17T03:41:41;4.10;;;3.20;;
8349;SDS011;60699;48.946;8.412;2023-08-17T03:44:08;3.60;;;2.97;;
8349;SDS011;60699;48.946;8.412;2023-08-17T03:46:35;5.03;;;2.70;;
8349;SDS011;60699;48.946;8.412;2023-08-17T03:49:02;2.93;;;2.60;;
8349;SDS011;60699;48.946;8.412;2023-08-17T03:51:29;4.03;;;2.80;;
8349;SDS011;60699;48.946;8.412;2023-08-17T03:53:56;3.27;;;2.97;;
8349;SDS011;60699;48.946;8.412;2023-08-17T03:56:25;2.67;;;2.47;;
8349;SDS011;60699;48.946;8.412;2023-08-17T03:58:52;5.00;;;2.80;;
8349;SDS011;60699;48.946;8.412;2023-08-17T04:01:19;4.50;;;2.97;;
8349;SDS011;60699;48.946;8.412;2023-08-17T04:03:46;5.30;;;3.20;;
8349;SDS011;60699;48.946;8.412;2023-08-17T04:06:13;3.03;;;2.80;;
8349;SDS011;60699;48.946;8.412;2023-08-17T04:08:40;3.07;;;2.77;;
8349;SDS011;60699;48.946;8.412;2023-08-17T04:11:07;3.13;;;2.57;;
8349;SDS011;60699;48.946;8.412;2023-08-17T04:13:36;3.03;;;2.70;;
8349;SDS011;60699;48.946;8.412;2023-08-17T04:16:03;3.50;;;2.77;;
8349;SDS011;60699;48.946;8.412;2023-08-17T04:18:30;3.13;;;2.83;;
8349;SDS011;60699;48.946;8.412;2023-08-17T04:20:57;8.33;;;2.73;;
8349;SDS011;60699;48.946;8.412;2023-08-17T04:23:24;3.70;;;3.23;;
8349;SDS011;60699;48.946;8.412;2023-08-17T04:25:51;6.30;;;2.97;;
8349;SDS011;60699;48.946;8.412;2023-08-17T04:28:20;3.20;;;2.90;;
8349;SDS011;60699;48.946;8.412;2023-08-17T04:30:49;4.90;;;3.13;;
8349;SDS011;60699;48.946;8.412;2023-08-17T04:33:16;3.13;;;2.87;;
8349;SDS011;60699;48.946;8.412;2023-08-17T04:35:46;3.20;;;2.90;;
8349;SDS011;60699;48.946;8.412;2023-08-17T04:38:13;6.00;;;3.27;;
8349;SDS011;60699;48.946;8.412;2023-08-17T04:40:40;3.07;;;2.60;;
8349;SDS011;60699;48.946;8.412;2023-08-17T04:43:09;4.60;;;3.23;;
8349;SDS011;60699;48.946;8.412;2023-08-17T04:45:36;3.57;;;3.27;;
8349;SDS011;60699;48.946;8.412;2023-08-17T04:48:05;3.47;;;3.10;;
8349;SDS011;60699;48.946;8.412;2023-08-17T04:50:32;4.60;;;4.03;;
8349;SDS011;60699;48.946;8.412;2023-08-17T04:52:59;4.10;;;3.80;;
8349;SDS011;60699;48.946;8.412;2023-08-17T04:55:27;5.57;;;3.47;;
8349;SDS011;60699;48.946;8.412;2023-08-17T04:57:54;4.47;;;3.43;;
8349;SDS011;60699;48.946;8.412;2023-08-17T05:00:22;4.83;;;3.60;;
8349;SDS011;60699;48.946;8.412;2023-08-17T05:02:52;4.30;;;3.60;;
8349;SDS011;60699;48.946;8.412;2023-08-17T05:05:21;4.23;;;3.20;;
8349;SDS011;60699;48.946;8.412;2023-08-17T05:07:48;3.87;;;3.43;;
8349;SDS011;60699;48.946;8.412;2023-08-17T05:10:15;3.53;;;3.27;;
8349;SDS011;60699;48.946;8.412;2023-08-17T05:12:42;7.03;;;3.50;;
8349;SDS011;60699;48.946;8.412;2023-08-17T05:15:09;4.53;;;4.13;;
8349;SDS011;60699;48.946;8.412;2023-08-17T05:17:36;3.70;;;3.40;;
8349;SDS011;60699;48.946;8.412;2023-08-17T05:20:04;4.70;;;4.10;;
8349;SDS011;60699;48.946;8.412;2023-08-17T05:22:34;5.50;;;3.80;;
8349;SDS011;60699;48.946;8.412;2023-08-17T05:25:01;6.67;;;4.23;;
8349;SDS011;60699;48.946;8.412;2023-08-17T05:27:28;4.97;;;3.87;;
8349;SDS011;60699;48.946;8.412;2023-08-17T05:29:55;5.80;;;3.70;;
8349;SDS011;60699;48.946;8.412;2023-08-17T05:32:23;4.73;;;4.23;;
8349;SDS011;60699;48.946;8.412;2023-08-17T05:34:50;7.30;;;4.70;;
8349;SDS011;60699;48.946;8.412;2023-08-17T05:37:17;4.93;;;4.53;;
8349;SDS011;60699;48.946;8.412;2023-08-17T05:39:45;4.77;;;4.37;;
8349;SDS011;60699;48.946;8.412;2023-08-17T05:42:12;6.10;;;4.73;;
8349;SDS011;60699;48.946;8.412;2023-08-17T05:44:39;5.13;;;4.30;;
8349;SDS011;60699;48.946;8.412;2023-08-17T05:47:06;5.40;;;4.80;;
8349;SDS011;60699;48.946;8.412;2023-08-17T05:49:33;4.53;;;4.00;;
8349;SDS011;60699;48.946;8.412;2023-08-17T05:52:00;4.73;;;4.10;;
8349;SDS011;60699;48.946;8.412;2023-08-17T05:54:27;4.97;;;4.33;;
8349;SDS011;60699;48.946;8.412;2023-08-17T05:56:56;6.27;;;4.97;;
8349;SDS011;60699;48.946;8.412;2023-08-17T05:59:23;10.27;;;4.27;;
8349;SDS011;60699;48.946;8.412;2023-08-17T06:01:50;4.53;;;4.10;;
8349;SDS011;60699;48.946;8.412;2023-08-17T06:04:17;4.10;;;3.70;;
8349;SDS011;60699;48.946;8.412;2023-08-17T06:06:46;5.57;;;4.30;;
8349;SDS011;60699;48.946;8.412;2023-08-17T06:09:13;3.77;;;3.20;;
8349;SDS011;60699;48.946;8.412;2023-08-17T06:11:40;4.33;;;3.90;;
8349;SDS011;60699;48.946;8.412;2023-08-17T06:14:08;4.77;;;4.00;;
8349;SDS011;60699;48.946;8.412;2023-08-17T06:16:35;5.77;;;3.80;;
8349;SDS011;60699;48.946;8.412;2023-08-17T06:19:03;7.70;;;4.00;;
8349;SDS011;60699;48.946;8.412;2023-08-17T06:21:30;4.67;;;3.47;;
8349;SDS011;60699;48.946;8.412;2023-08-17T06:23:57;4.20;;;3.80;;
8349;SDS011;60699;48.946;8.412;2023-08-17T06:26:24;4.67;;;4.13;;
8349;SDS011;60699;48.946;8.412;2023-08-17T06:28:51;6.60;;;4.80;;
8349;SDS011;60699;48.946;8.412;2023-08-17T06:31:19;5.40;;;4.33;;
8349;SDS011;60699;48.946;8.412;2023-08-17T06:33:48;7.10;;;4.20;;
8349;SDS011;60699;48.946;8.412;2023-08-17T06:36:15;5.33;;;4.00;;
8349;SDS011;60699;48.946;8.412;2023-08-17T06:38:42;5.20;;;4.07;;
8349;SDS011;60699;48.946;8.412;2023-08-17T06:41:09;10.10;;;4.60;;
8349;SDS011;60699;48.946;8.412;2023-08-17T06:43:36;19.60;;;5.30;;
8349;SDS011;60699;48.946;8.412;2023-08-17T06:46:03;5.03;;;4.53;;
8349;SDS011;60699;48.946;8.412;2023-08-17T06:48:32;6.50;;;4.63;;
8349;SDS011;60699;48.946;8.412;2023-08-17T06:50:59;6.80;;;3.83;;
8349;SDS011;60699;48.946;8.412;2023-08-17T06:53:27;10.97;;;5.20;;
8349;SDS011;60699;48.946;8.412;2023-08-17T06:55:54;5.03;;;4.53;;
8349;SDS011;60699;48.946;8.412;2023-08-17T06:58:22;7.43;;;5.80;;
8349;SDS011;60699;48.946;8.412;2023-08-17T07:00:49;6.47;;;4.57;;
8349;SDS011;60699;48.946;8.412;2023-08-17T07:03:16;13.23;;;5.83;;
8349;SDS011;60699;48.946;8.412;2023-08-17T07:05:44;11.00;;;5.37;;
8349;SDS011;60699;48.946;8.412;2023-08-17T07:08:13;8.23;;;5.27;;
8349;SDS011;60699;48.946;8.412;2023-08-17T07:10:44;6.40;;;4.83;;
8349;SDS011;60699;48.946;8.412;2023-08-17T07:13:17;5.87;;;4.90;;
8349;SDS011;60699;48.946;8.412;2023-08-17T07:15:45;8.60;;;5.03;;
8349;SDS011;60699;48.946;8.412;2023-08-17T07:18:23;6.80;;;5.10;;
8349;SDS011;60699;48.946;8.412;2023-08-17T07:20:56;9.10;;;6.60;;
8349;SDS011;60699;48.946;8.412;2023-08-17T07:23:29;7.80;;;5.67;;
8349;SDS011;60699;48.946;8.412;2023-08-17T07:26:01;7.37;;;5.97;;
8349;SDS011;60699;48.946;8.412;2023-08-17T07:28:47;8.87;;;6.60;;
8349;SDS011;60699;48.946;8.412;2023-08-17T07:31:24;9.70;;;7.30;;
8349;SDS011;60699;48.946;8.412;2023-08-17T07:33:54;7.17;;;6.47;;
8349;SDS011;60699;48.946;8.412;2023-08-17T07:36:28;7.57;;;6.77;;
8349;SDS011;60699;48.946;8.412;2023-08-17T07:44:57;14.57;;;6.67;;
8349;SDS011;60699;48.946;8.412;2023-08-17T07:47:24;9.30;;;7.40;;
8349;SDS011;60699;48.946;8.412;2023-08-17T07:49:51;7.47;;;6.17;;
8349;SDS011;60699;48.946;8.412;2023-08-17T07:52:19;9.50;;;7.77;;
8349;SDS011;60699;48.946;8.412;2023-08-17T07:54:47;8.77;;;6.43;;
8349;SDS011;60699;48.946;8.412;2023-08-17T07:57:14;7.23;;;6.50;;
8349;SDS011;60699;48.946;8.412;2023-08-17T07:59:40;11.37;;;8.13;;
8349;SDS011;60699;48.946;8.412;2023-08-17T08:02:07;12.07;;;7.93;;
8349;SDS011;60699;48.946;8.412;2023-08-17T08:04:34;11.40;;;8.23;;
8349;SDS011;60699;48.946;8.412;2023-08-17T08:07:01;10.40;;;7.87;;
8349;SDS011;60699;48.946;8.412;2023-08-17T08:09:30;10.40;;;7.20;;
8349;SDS011;60699;48.946;8.412;2023-08-17T08:11:57;9.80;;;7.57;;
8349;SDS011;60699;48.946;8.412;2023-08-17T08:14:24;9.43;;;6.70;;
8349;SDS011;60699;48.946;8.412;2023-08-17T08:16:51;9.00;;;6.50;;
8349;SDS011;60699;48.946;8.412;2023-08-17T08:19:18;7.60;;;6.10;;
8349;SDS011;60699;48.946;8.412;2023-08-17T08:21:45;9.90;;;6.87;;
8349;SDS011;60699;48.946;8.412;2023-08-17T08:24:12;7.73;;;6.70;;
8349;SDS011;60699;48.946;8.412;2023-08-17T08:26:41;10.43;;;7.10;;
8349;SDS011;60699;48.946;8.412;2023-08-17T08:29:08;8.90;;;6.73;;
8349;SDS011;60699;48.946;8.412;2023-08-17T08:31:35;10.70;;;8.30;;
8349;SDS011;60699;48.946;8.412;2023-08-17T08:34:02;8.57;;;7.37;;
8349;SDS011;60699;48.946;8.412;2023-08-17T08:36:29;7.50;;;6.43;;
8349;SDS011;60699;48.946;8.412;2023-08-17T08:38:56;7.73;;;6.33;;
8349;SDS011;60699;48.946;8.412;2023-08-17T08:41:23;11.20;;;6.23;;
8349;SDS011;60699;48.946;8.412;2023-08-17T08:43:52;7.80;;;6.03;;
8349;SDS011;60699;48.946;8.412;2023-08-17T08:46:20;10.13;;;6.03;;
8349;SDS011;60699;48.946;8.412;2023-08-17T08:48:47;7.33;;;5.77;;
8349;SDS011;60699;48.946;8.412;2023-08-17T08:51:16;11.63;;;6.47;;
8349;SDS011;60699;48.946;8.412;2023-08-17T08:53:49;7.40;;;5.47;;
8349;SDS011;60699;48.946;8.412;2023-08-17T08:56:20;8.40;;;6.20;;
8349;SDS011;60699;48.946;8.412;2023-08-17T08:58:50;7.47;;;6.47;;
8349;SDS011;60699;48.946;8.412;2023-08-17T09:01:19;9.10;;;5.77;;
8349;SDS011;60699;48.946;8.412;2023-08-17T09:03:46;8.40;;;5.73;;
8349;SDS011;60699;48.946;8.412;2023-08-17T09:06:14;8.20;;;7.13;;
8349;SDS011;60699;48.946;8.412;2023-08-17T09:08:42;7.30;;;5.90;;
8349;SDS011;60699;48.946;8.412;2023-08-17T09:11:11;7.27;;;6.20;;
8349;SDS011;60699;48.946;8.412;2023-08-17T09:13:38;8.83;;;7.50;;
8349;SDS011;60699;48.946;8.412;2023-08-17T09:16:05;10.63;;;6.90;;
8349;SDS011;60699;48.946;8.412;2023-08-17T09:18:35;9.13;;;6.77;;
8349;SDS011;60699;48.946;8.412;2023-08-17T09:21:03;6.93;;;6.33;;
8349;SDS011;60699;48.946;8.412;2023-08-17T09:23:30;9.23;;;6.60;;
8349;SDS011;60699;48.946;8.412;2023-08-17T09:25:57;9.80;;;6.57;;
8349;SDS011;60699;48.946;8.412;2023-08-17T09:28:24;8.77;;;6.50;;
8349;SDS011;60699;48.946;8.412;2023-08-17T09:30:52;8.93;;;6.97;;
8349;SDS011;60699;48.946;8.412;2023-08-17T09:33:20;7.80;;;6.20;;
8349;SDS011;60699;48.946;8.412;2023-08-17T09:35:48;9.17;;;7.00;;
8349;SDS011;60699;48.946;8.412;2023-08-17T09:38:16;8.30;;;6.60;;
8349;SDS011;60699;48.946;8.412;2023-08-17T09:40:43;9.30;;;7.17;;
8349;SDS011;60699;48.946;8.412;2023-08-17T09:43:10;9.20;;;6.60;;
8349;SDS011;60699;48.946;8.412;2023-08-17T09:45:38;8.93;;;6.70;;
8349;SDS011;60699;48.946;8.412;2023-08-17T09:48:05;6.47;;;5.73;;
8349;SDS011;60699;48.946;8.412;2023-08-17T09:50:33;6.67;;;6.00;;
8349;SDS011;60699;48.946;8.412;2023-08-17T09:53:02;9.60;;;7.07;;
8349;SDS011;60699;48.946;8.412;2023-08-17T09:55:30;7.13;;;6.43;;
8349;SDS011;60699;48.946;8.412;2023-08-17T09:57:58;8.10;;;6.50;;
8349;SDS011;60699;48.946;8.412;2023-08-17T10:00:25;8.97;;;7.10;;
8349;SDS011;60699;48.946;8.412;2023-08-17T10:02:53;13.63;;;6.77;;
8349;SDS011;60699;48.946;8.412;2023-08-17T10:05:21;7.17;;;6.47;;
8349;SDS011;60699;48.946;8.412;2023-08-17T10:07:51;8.00;;;6.73;;
8349;SDS011;60699;48.946;8.412;2023-08-17T10:10:21;7.67;;;6.37;;
8349;SDS011;60699;48.946;8.412;2023-08-17T10:12:52;7.00;;;6.30;;
8349;SDS011;60699;48.946;8.412;2023-08-17T10:15:21;8.20;;;6.33;;
8349;SDS011;60699;48.946;8.412;2023-08-17T10:17:53;7.07;;;6.10;;
8349;SDS011;60699;48.946;8.412;2023-08-17T10:20:22;9.00;;;7.30;;
8349;SDS011;60699;48.946;8.412;2023-08-17T10:22:51;7.50;;;6.70;;
8349;SDS011;60699;48.946;8.412;2023-08-17T10:25:22;7.00;;;6.30;;
8349;SDS011;60699;48.946;8.412;2023-08-17T10:27:52;7.17;;;6.47;;
8349;SDS011;60699;48.946;8.412;2023-08-17T10:30:20;8.30;;;6.20;;
8349;SDS011;60699;48.946;8.412;2023-08-17T10:32:48;8.40;;;6.53;;
8349;SDS011;60699;48.946;8.412;2023-08-17T10:35:15;7.70;;;6.90;;
8349;SDS011;60699;48.946;8.412;2023-08-17T10:37:42;7.20;;;6.10;;
8349;SDS011;60699;48.946;8.412;2023-08-17T10:40:10;11.27;;;7.40;;
8349;SDS011;60699;48.946;8.412;2023-08-17T10:42:39;9.13;;;6.50;;
8349;SDS011;60699;48.946;8.412;2023-08-17T10:47:49;8.93;;;7.20;;
8349;SDS011;60699;48.946;8.412;2023-08-17T10:50:20;13.07;;;6.37;;
8349;SDS011;60699;48.946;8.412;2023-08-17T10:52:47;8.30;;;6.27;;
8349;SDS011;60699;48.946;8.412;2023-08-17T10:55:15;7.10;;;6.40;;
8349;SDS011;60699;48.946;8.412;2023-08-17T10:57:45;7.30;;;6.53;;
8349;SDS011;60699;48.946;8.412;2023-08-17T11:00:16;7.90;;;7.03;;
8349;SDS011;60699;48.946;8.412;2023-08-17T11:02:51;7.60;;;6.90;;
8349;SDS011;60699;48.946;8.412;2023-08-17T11:05:33;9.53;;;7.13;;
8349;SDS011;60699;48.946;8.412;2023-08-17T11:08:01;7.07;;;6.37;;
8349;SDS011;60699;48.946;8.412;2023-08-17T11:10:28;7.03;;;5.83;;
8349;SDS011;60699;48.946;8.412;2023-08-17T11:12:57;7.87;;;5.80;;
8349;SDS011;60699;48.946;8.412;2023-08-17T11:15:26;6.37;;;5.73;;
8349;SDS011;60699;48.946;8.412;2023-08-17T11:17:53;6.90;;;6.20;;
8349;SDS011;60699;48.946;8.412;2023-08-17T11:20:22;6.80;;;6.20;;
8349;SDS011;60699;48.946;8.412;2023-08-17T11:22:51;6.57;;;5.90;;
8349;SDS011;60699;48.946;8.412;2023-08-17T11:25:18;7.20;;;6.33;;
8349;SDS011;60699;48.946;8.412;2023-08-17T11:27:46;6.07;;;5.53;;
8349;SDS011;60699;48.946;8.412;2023-08-17T11:30:14;7.03;;;5.87;;
8349;SDS011;60699;48.946;8.412;2023-08-17T11:35:23;8.53;;;7.07;;
8349;SDS011;60699;48.946;8.412;2023-08-17T11:37:50;11.73;;;8.10;;
8349;SDS011;60699;48.946;8.412;2023-08-17T11:42:56;10.47;;;6.97;;
8349;SDS011;60699;48.946;8.412;2023-08-17T11:45:25;9.10;;;7.50;;
8349;SDS011;60699;48.946;8.412;2023-08-17T11:47:54;9.37;;;7.87;;
8349;SDS011;60699;48.946;8.412;2023-08-17T11:50:21;7.63;;;6.90;;
8349;SDS011;60699;48.946;8.412;2023-08-17T11:52:49;8.03;;;6.83;;
8349;SDS011;60699;48.946;8.412;2023-08-17T11:55:24;8.90;;;7.70;;
8349;SDS011;60699;48.946;8.412;2023-08-17T12:00:23;8.90;;;8.03;;
8349;SDS011;60699;48.946;8.412;2023-08-17T12:02:53;9.53;;;7.50;;
8349;SDS011;60699;48.946;8.412;2023-08-17T12:05:23;10.37;;;7.90;;
8349;SDS011;60699;48.946;8.412;2023-08-17T12:07:59;9.07;;;7.27;;
8349;SDS011;60699;48.946;8.412;2023-08-17T12:10:31;10.03;;;8.20;;
8349;SDS011;60699;48.946;8.412;2023-08-17T12:13:00;9.90;;;8.03;;
8349;SDS011;60699;48.946;8.412;2023-08-17T12:15:30;12.77;;;8.90;;
8349;SDS011;60699;48.946;8.412;2023-08-17T12:17:59;10.07;;;6.97;;
8349;SDS011;60699;48.946;8.412;2023-08-17T12:20:27;11.97;;;8.30;;
8349;SDS011;60699;48.946;8.412;2023-08-17T12:22:58;10.67;;;9.07;;
8349;SDS011;60699;48.946;8.412;2023-08-17T12:25:26;11.40;;;8.87;;
8349;SDS011;60699;48.946;8.412;2023-08-17T12:27:58;11.53;;;8.10;;
8349;SDS011;60699;48.946;8.412;2023-08-17T12:30:27;11.00;;;9.27;;
8349;SDS011;60699;48.946;8.412;2023-08-17T12:32:59;10.13;;;7.57;;
8349;SDS011;60699;48.946;8.412;2023-08-17T12:35:31;12.10;;;9.20;;
8349;SDS011;60699;48.946;8.412;2023-08-17T12:38:00;14.00;;;8.20;;
8349;SDS011;60699;48.946;8.412;2023-08-17T12:40:27;13.37;;;9.60;;
8349;SDS011;60699;48.946;8.412;2023-08-17T12:43:00;11.33;;;8.53;;
8349;SDS011;60699;48.946;8.412;2023-08-17T12:45:28;9.63;;;8.63;;
8349;SDS011;60699;48.946;8.412;2023-08-17T12:47:57;11.20;;;9.00;;
8349;SDS011;60699;48.946;8.412;2023-08-17T12:50:25;10.33;;;8.30;;
8349;SDS011;60699;48.946;8.412;2023-08-17T12:52:52;10.27;;;8.23;;
8349;SDS011;60699;48.946;8.412;2023-08-17T12:55:21;9.73;;;7.93;;
8349;SDS011;60699;48.946;8.412;2023-08-17T12:57:51;9.70;;;8.27;;
8349;SDS011;60699;48.946;8.412;2023-08-17T13:00:18;11.70;;;9.40;;
8349;SDS011;60699;48.946;8.412;2023-08-17T13:02:46;10.73;;;7.73;;
8349;SDS011;60699;48.946;8.412;2023-08-17T13:05:17;9.70;;;8.40;;
8349;SDS011;60699;48.946;8.412;2023-08-17T13:07:45;12.53;;;8.10;;
8349;SDS011;60699;48.946;8.412;2023-08-17T13:10:13;11.47;;;8.57;;
8349;SDS011;60699;48.946;8.412;2023-08-17T13:12:41;11.20;;;9.60;;
8349;SDS011;60699;48.946;8.412;2023-08-17T13:15:08;14.00;;;9.07;;
8349;SDS011;60699;48.946;8.412;2023-08-17T13:17:35;12.87;;;8.60;;
8349;SDS011;60699;48.946;8.412;2023-08-17T13:20:05;13.73;;;8.27;;
8349;SDS011;60699;48.946;8.412;2023-08-17T13:22:33;8.97;;;7.40;;
8349;SDS011;60699;48.946;8.412;2023-08-17T13:25:03;12.00;;;8.17;;
8349;SDS011;60699;48.946;8.412;2023-08-17T13:27:32;8.47;;;7.53;;
8349;SDS011;60699;48.946;8.412;2023-08-17T13:29:59;9.20;;;7.93;;
8349;SDS011;60699;48.946;8.412;2023-08-17T13:32:26;11.70;;;9.80;;
8349;SDS011;60699;48.946;8.412;2023-08-17T13:34:53;10.97;;;7.90;;
8349;SDS011;60699;48.946;8.412;2023-08-17T13:37:21;8.43;;;7.60;;
8349;SDS011;60699;48.946;8.412;2023-08-17T13:39:48;9.90;;;7.60;;
8349;SDS011;60699;48.946;8.412;2023-08-17T13:42:16;8.93;;;7.90;;
8349;SDS011;60699;48.946;8.412;2023-08-17T13:44:43;9.60;;;8.60;;
8349;SDS011;60699;48.946;8.412;2023-08-17T13:47:11;12.57;;;7.80;;
8349;SDS011;60699;48.946;8.412;2023-08-17T13:49:44;9.53;;;8.30;;
8349;SDS011;60699;48.946;8.412;2023-08-17T13:52:12;16.87;;;9.43;;
8349;SDS011;60699;48.946;8.412;2023-08-17T13:54:40;8.40;;;7.27;;
8349;SDS011;60699;48.946;8.412;2023-08-17T13:57:07;10.70;;;8.50;;
8349;SDS011;60699;48.946;8.412;2023-08-17T13:59:35;8.90;;;7.70;;
8349;SDS011;60699;48.946;8.412;2023-08-17T14:02:02;8.20;;;7.33;;
8349;SDS011;60699;48.946;8.412;2023-08-17T14:04:32;6.83;;;6.13;;
8349;SDS011;60699;48.946;8.412;2023-08-17T14:07:00;9.43;;;7.77;;
8349;SDS011;60699;48.946;8.412;2023-08-17T14:09:27;8.00;;;6.60;;
8349;SDS011;60699;48.946;8.412;2023-08-17T14:11:54;8.23;;;6.83;;
8349;SDS011;60699;48.946;8.412;2023-08-17T14:14:21;8.07;;;6.83;;
8349;SDS011;60699;48.946;8.412;2023-08-17T14:16:49;7.30;;;6.60;;
8349;SDS011;60699;48.946;8.412;2023-08-17T14:19:17;7.77;;;6.97;;
8349;SDS011;60699;48.946;8.412;2023-08-17T14:21:47;7.17;;;6.10;;
8349;SDS011;60699;48.946;8.412;2023-08-17T14:24:14;7.97;;;7.17;;
8349;SDS011;60699;48.946;8.412;2023-08-17T14:26:41;6.63;;;6.03;;
8349;SDS011;60699;48.946;8.412;2023-08-17T14:29:10;7.97;;;7.17;;
8349;SDS011;60699;48.946;8.412;2023-08-17T14:31:38;6.93;;;6.30;;
8349;SDS011;60699;48.946;8.412;2023-08-17T14:34:06;8.10;;;7.40;;
8349;SDS011;60699;48.946;8.412;2023-08-17T14:36:33;7.77;;;7.00;;
8349;SDS011;60699;48.946;8.412;2023-08-17T14:39:00;6.73;;;6.03;;
8349;SDS011;60699;48.946;8.412;2023-08-17T14:41:27;6.90;;;5.77;;
8349;SDS011;60699;48.946;8.412;2023-08-17T14:43:57;6.17;;;5.57;;
8349;SDS011;60699;48.946;8.412;2023-08-17T14:46:24;7.03;;;6.30;;
8349;SDS011;60699;48.946;8.412;2023-08-17T14:48:51;6.27;;;5.77;;
8349;SDS011;60699;48.946;8.412;2023-08-17T14:51:21;7.67;;;6.97;;
8349;SDS011;60699;48.946;8.412;2023-08-17T14:53:48;7.33;;;6.63;;
8349;SDS011;60699;48.946;8.412;2023-08-17T14:56:16;6.20;;;5.70;;
8349;SDS011;60699;48.946;8.412;2023-08-17T14:58:43;5.30;;;4.70;;
8349;SDS011;60699;48.946;8.412;2023-08-17T15:01:10;8.67;;;6.47;;
8349;SDS011;60699;48.946;8.412;2023-08-17T15:03:37;6.00;;;5.40;;
8349;SDS011;60699;48.946;8.412;2023-08-17T15:06:05;7.40;;;5.73;;
8349;SDS011;60699;48.946;8.412;2023-08-17T15:08:33;6.70;;;6.10;;
8349;SDS011;60699;48.946;8.412;2023-08-17T15:11:00;6.83;;;6.23;;
8349;SDS011;60699;48.946;8.412;2023-08-17T15:13:28;7.60;;;6.33;;
8349;SDS011;60699;48.946;8.412;2023-08-17T15:15:55;6.73;;;6.13;;
8349;SDS011;60699;48.946;8.412;2023-08-17T15:18:23;6.10;;;5.33;;
8349;SDS011;60699;48.946;8.412;2023-08-17T15:20:51;8.27;;;5.87;;
8349;SDS011;60699;48.946;8.412;2023-08-17T15:23:18;8.50;;;7.10;;